Aviation Digital Data Service (ADDS)

Output produced by METARs form (2255 UTC 15 February 2019)
found at http://www.aviationweather.gov/metar/data/
 
METAR text: DNPO 152200Z 00000KT 3000 HZ NSC 23/18 Q1013 NOSIG
Conditions at: DNPO (PORT HARCOURT , NG) observed 2200 UTC 15 February 2019
Temperature: 23.0°C (73°F)
Dewpoint: 18.0°C (64°F) [RH = 73%]
Pressure (altimeter): 29.91 inches Hg (1013.0 mb)
Winds: calm
Visibility: 1.86 miles (2.99 km)
Ceiling: at least 12,000 feet AGL
Clouds: sky clear below 12,000 feet AGL
Weather: HZ  (haze)

METAR text: DNPO 152100Z 00000KT 3000 HZ NSC 23/18 Q1012 NOSIG
Conditions at: DNPO (PORT HARCOURT , NG) observed 2100 UTC 15 February 2019
Temperature: 23.0°C (73°F)
Dewpoint: 18.0°C (64°F) [RH = 73%]
Pressure (altimeter): 29.88 inches Hg (1012.0 mb)
Winds: calm
Visibility: 1.86 miles (2.99 km)
Ceiling: at least 12,000 feet AGL
Clouds: sky clear below 12,000 feet AGL
Weather: HZ  (haze)

METAR text: DNPO 152000Z 00000KT 3000 HZ NSC 24/18 Q1011 NOSIG
Conditions at: DNPO (PORT HARCOURT , NG) observed 2000 UTC 15 February 2019
Temperature: 24.0°C (75°F)
Dewpoint: 18.0°C (64°F) [RH = 69%]
Pressure (altimeter): 29.85 inches Hg (1011.0 mb)
Winds: calm
Visibility: 1.86 miles (2.99 km)
Ceiling: at least 12,000 feet AGL
Clouds: sky clear below 12,000 feet AGL
Weather: HZ  (haze)

METAR text: DNPO 151900Z VRB02KT 3000 HZ NSC 29/18 Q1010 NOSIG
Conditions at: DNPO (PORT HARCOURT , NG) observed 1900 UTC 15 February 2019
Temperature: 29.0°C (84°F)
Dewpoint: 18.0°C (64°F) [RH = 52%]
Pressure (altimeter): 29.82 inches Hg (1010.0 mb)
Winds: variable direction winds at 2 MPH (2 knots; 1.0 m/s)
Visibility: 1.86 miles (2.99 km)
Ceiling: at least 12,000 feet AGL
Clouds: sky clear below 12,000 feet AGL
Weather: HZ  (haze)

METAR text: DNPO 151500Z 33007KT 3000 HZ NSC 34/11 Q1009 NOSIG
Conditions at: DNPO (PORT HARCOURT , NG) observed 1500 UTC 15 February 2019
Temperature: 34.0°C (93°F)
Dewpoint: 11.0°C (52°F) [RH = 25%]
Pressure (altimeter): 29.79 inches Hg (1009.0 mb)
Winds: from the NNW (330 degrees) at 8 MPH (7 knots; 3.6 m/s)
Visibility: 1.86 miles (2.99 km)
Ceiling: at least 12,000 feet AGL
Clouds: sky clear below 12,000 feet AGL
Weather: HZ  (haze)

METAR text: DNPO 151400Z 26005KT 3000 HZ NSC 34/10 Q1010 NOSIG
Conditions at: DNPO (PORT HARCOURT , NG) observed 1400 UTC 15 February 2019
Temperature: 34.0°C (93°F)
Dewpoint: 10.0°C (50°F) [RH = 23%]
Pressure (altimeter): 29.82 inches Hg (1010.0 mb)
Winds: from the W (260 degrees) at 6 MPH (5 knots; 2.6 m/s)
Visibility: 1.86 miles (2.99 km)
Ceiling: at least 12,000 feet AGL
Clouds: sky clear below 12,000 feet AGL
Weather: HZ  (haze)

METAR text: DNPO 151300Z 03008KT 3000 HZ NSC 33//9 Q1011 NOSIG
Conditions at: DNPO (PORT HARCOURT , NG) observed 1300 UTC 15 February 2019
Temperature: missing
Dewpoint: missing
Pressure (altimeter): 29.85 inches Hg (1011.0 mb)
Winds: from the NNE (30 degrees) at 9 MPH (8 knots; 4.1 m/s)
Visibility: 1.86 miles (2.99 km)
Ceiling: at least 12,000 feet AGL
Clouds: sky clear below 12,000 feet AGL
Weather: HZ  (haze)

METAR text: DNPO 151100Z 36010KT 3000 HZ NSC 32/10 Q1014 NOSIG
Conditions at: DNPO (PORT HARCOURT , NG) observed 1100 UTC 15 February 2019
Temperature: 32.0°C (90°F)
Dewpoint: 10.0°C (50°F) [RH = 26%]
Pressure (altimeter): 29.94 inches Hg (1014.0 mb)
Winds: from the N (360 degrees) at 12 MPH (10 knots; 5.1 m/s)
Visibility: 1.86 miles (2.99 km)
Ceiling: at least 12,000 feet AGL
Clouds: sky clear below 12,000 feet AGL
Weather: HZ  (haze)

METAR text: DNPO 151000Z 36008KT 3000 HZ FEW010 30/20 Q1014 NOSIG
Conditions at: DNPO (PORT HARCOURT , NG) observed 1000 UTC 15 February 2019
Temperature: 30.0°C (86°F)
Dewpoint: 20.0°C (68°F) [RH = 55%]
Pressure (altimeter): 29.94 inches Hg (1014.0 mb)
Winds: from the N (360 degrees) at 9 MPH (8 knots; 4.1 m/s)
Visibility: 1.86 miles (2.99 km)
Ceiling: at least 12,000 feet AGL
Clouds: few clouds at 1000 feet AGL
Weather: HZ  (haze)

METAR text: DNPO 150900Z 36007KT 3000 HZ 28/23 Q1015 BECMG 5000
Conditions at: DNPO (PORT HARCOURT , NG) observed 0900 UTC 15 February 2019
Temperature: 28.0°C (82°F)
Dewpoint: 23.0°C (73°F) [RH = 74%]
Pressure (altimeter): 29.97 inches Hg (1015.0 mb)
Winds: from the N (360 degrees) at 8 MPH (7 knots; 3.6 m/s)
Visibility: 1.86 miles (2.99 km)
Ceiling: unknown
Clouds: missing
Weather: HZ  (haze)

METAR text: DNPO 150800Z 04005KT 2000 BR SCT008 25/24 Q1015 BECMG 3000
Conditions at: DNPO (PORT HARCOURT , NG) observed 0800 UTC 15 February 2019
Temperature: 25.0°C (77°F)
Dewpoint: 24.0°C (75°F) [RH = 94%]
Pressure (altimeter): 29.97 inches Hg (1015.0 mb)
Winds: from the NE (40 degrees) at 6 MPH (5 knots; 2.6 m/s)
Visibility: 1.24 miles (2.00 km)
Ceiling: at least 12,000 feet AGL
Clouds: scattered clouds at 800 feet AGL
Weather: BR  (mist)

METAR text: DNPO 150700Z 35005KT 0300 FG OVC003 23/23 Q1014 TEMPO 0100
Conditions at: DNPO (PORT HARCOURT , NG) observed 0700 UTC 15 February 2019
Temperature: 23.0°C (73°F)
Dewpoint: 23.0°C (73°F) [RH = 100%]
Pressure (altimeter): 29.94 inches Hg (1014.0 mb)
Winds: from the N (350 degrees) at 6 MPH (5 knots; 2.6 m/s)
Visibility: 0.19 miles (0.31 km)
Ceiling: 300 feet AGL
Clouds: overcast cloud deck at 300 feet AGL
Weather: FG  (fog)

METAR text: DNPO 150100Z 00000KT 3000 HZ NSC 23/19 Q1012 NOSIG
Conditions at: DNPO (PORT HARCOURT , NG) observed 0100 UTC 15 February 2019
Temperature: 23.0°C (73°F)
Dewpoint: 19.0°C (66°F) [RH = 78%]
Pressure (altimeter): 29.88 inches Hg (1012.0 mb)
Winds: calm
Visibility: 1.86 miles (2.99 km)
Ceiling: at least 12,000 feet AGL
Clouds: sky clear below 12,000 feet AGL
Weather: HZ  (haze)

METAR text: DNPO 150000Z 00000KT 3000 HZ NSC 23/19 Q1013 NOSIG
Conditions at: DNPO (PORT HARCOURT , NG) observed 0000 UTC 15 February 2019
Temperature: 23.0°C (73°F)
Dewpoint: 19.0°C (66°F) [RH = 78%]
Pressure (altimeter): 29.91 inches Hg (1013.0 mb)
Winds: calm
Visibility: 1.86 miles (2.99 km)
Ceiling: at least 12,000 feet AGL
Clouds: sky clear below 12,000 feet AGL
Weather: HZ  (haze)

METAR text: DNPO 142000Z 00000KT 3000 HZ NSC 25/20 Q1012 NOSIG
Conditions at: DNPO (PORT HARCOURT , NG) observed 2000 UTC 14 February 2019
Temperature: 25.0°C (77°F)
Dewpoint: 20.0°C (68°F) [RH = 74%]
Pressure (altimeter): 29.88 inches Hg (1012.0 mb)
Winds: calm
Visibility: 1.86 miles (2.99 km)
Ceiling: at least 12,000 feet AGL
Clouds: sky clear below 12,000 feet AGL
Weather: HZ  (haze)

METAR text: DNPO 141900Z VRB02KT 5000 HZ NSC 27/21 Q1012 NOSIG
Conditions at: DNPO (PORT HARCOURT , NG) observed 1900 UTC 14 February 2019
Temperature: 27.0°C (81°F)
Dewpoint: 21.0°C (70°F) [RH = 70%]
Pressure (altimeter): 29.88 inches Hg (1012.0 mb)
Winds: variable direction winds at 2 MPH (2 knots; 1.0 m/s)
Visibility: 3 miles ( 5 km)
Ceiling: at least 12,000 feet AGL
Clouds: sky clear below 12,000 feet AGL
Weather: HZ  (haze)

METAR text: DNPO 141800Z VRB02KT 3000 HZ NSC 30/23 Q1010 NOSIG
Conditions at: DNPO (PORT HARCOURT , NG) observed 1800 UTC 14 February 2019
Temperature: 30.0°C (86°F)
Dewpoint: 23.0°C (73°F) [RH = 66%]
Pressure (altimeter): 29.82 inches Hg (1010.0 mb)
Winds: variable direction winds at 2 MPH (2 knots; 1.0 m/s)
Visibility: 1.86 miles (2.99 km)
Ceiling: at least 12,000 feet AGL
Clouds: sky clear below 12,000 feet AGL
Weather: HZ  (haze)

METAR text: DNPO 141700Z 00000KT 3000 HZ NSC 33/21 Q1009 NOSIG
Conditions at: DNPO (PORT HARCOURT , NG) observed 1700 UTC 14 February 2019
Temperature: 33.0°C (91°F)
Dewpoint: 21.0°C (70°F) [RH = 49%]
Pressure (altimeter): 29.79 inches Hg (1009.0 mb)
Winds: calm
Visibility: 1.86 miles (2.99 km)
Ceiling: at least 12,000 feet AGL
Clouds: sky clear below 12,000 feet AGL
Weather: HZ  (haze)

METAR text: DNPO 141600Z VRB02KT 3000 HZ NSC 34/19 Q1009 NOSIG
Conditions at: DNPO (PORT HARCOURT , NG) observed 1600 UTC 14 February 2019
Temperature: 34.0°C (93°F)
Dewpoint: 19.0°C (66°F) [RH = 41%]
Pressure (altimeter): 29.79 inches Hg (1009.0 mb)
Winds: variable direction winds at 2 MPH (2 knots; 1.0 m/s)
Visibility: 1.86 miles (2.99 km)
Ceiling: at least 12,000 feet AGL
Clouds: sky clear below 12,000 feet AGL
Weather: HZ  (haze)

METAR text: DNPO 141500Z 35006KT 3000 HZ NSC 34/15 Q1009 NOSIG
Conditions at: DNPO (PORT HARCOURT , NG) observed 1500 UTC 14 February 2019
Temperature: 34.0°C (93°F)
Dewpoint: 15.0°C (59°F) [RH = 32%]
Pressure (altimeter): 29.79 inches Hg (1009.0 mb)
Winds: from the N (350 degrees) at 7 MPH (6 knots; 3.1 m/s)
Visibility: 1.86 miles (2.99 km)
Ceiling: at least 12,000 feet AGL
Clouds: sky clear below 12,000 feet AGL
Weather: HZ  (haze)

METAR text: DNPO 141400Z 32006KT 3000 HZ NSC 34/18 Q1010 NOSIG
Conditions at: DNPO (PORT HARCOURT , NG) observed 1400 UTC 14 February 2019
Temperature: 34.0°C (93°F)
Dewpoint: 18.0°C (64°F) [RH = 39%]
Pressure (altimeter): 29.82 inches Hg (1010.0 mb)
Winds: from the NW (320 degrees) at 7 MPH (6 knots; 3.1 m/s)
Visibility: 1.86 miles (2.99 km)
Ceiling: at least 12,000 feet AGL
Clouds: sky clear below 12,000 feet AGL
Weather: HZ  (haze)

METAR text: DNPO 141300Z 36013KT 5000 HZ BKN013 34/19 Q1011 NOSIG
Conditions at: DNPO (PORT HARCOURT , NG) observed 1300 UTC 14 February 2019
Temperature: 34.0°C (93°F)
Dewpoint: 19.0°C (66°F) [RH = 41%]
Pressure (altimeter): 29.85 inches Hg (1011.0 mb)
Winds: from the N (360 degrees) at 15 MPH (13 knots; 6.7 m/s)
Visibility: 3 miles ( 5 km)
Ceiling: 1300 feet AGL
Clouds: broken clouds at 1300 feet AGL
Weather: HZ  (haze)

METAR text: DNPO 141200Z 01007KT 5000 HZ BKN012 32/23 Q1012 NOSIG
Conditions at: DNPO (PORT HARCOURT , NG) observed 1200 UTC 14 February 2019
Temperature: 32.0°C (90°F)
Dewpoint: 23.0°C (73°F) [RH = 59%]
Pressure (altimeter): 29.88 inches Hg (1012.0 mb)
Winds: from the N (10 degrees) at 8 MPH (7 knots; 3.6 m/s)
Visibility: 3 miles ( 5 km)
Ceiling: 1200 feet AGL
Clouds: broken clouds at 1200 feet AGL
Weather: HZ  (haze)

METAR text: DNPO 141100Z 02008KT 5000 HZ BKN012 32/24 Q1013 NOSIG
Conditions at: DNPO (PORT HARCOURT , NG) observed 1100 UTC 14 February 2019
Temperature: 32.0°C (90°F)
Dewpoint: 24.0°C (75°F) [RH = 63%]
Pressure (altimeter): 29.91 inches Hg (1013.0 mb)
Winds: from the NNE (20 degrees) at 9 MPH (8 knots; 4.1 m/s)
Visibility: 3 miles ( 5 km)
Ceiling: 1200 feet AGL
Clouds: broken clouds at 1200 feet AGL
Weather: HZ  (haze)

Forecast for: DNPO (PORT HARCOURT , NG)
Text: TAF DNPO 151535Z 1518/1624 VRB02KT 3000 HZ NSC
Forecast period: 1800 UTC 15 February 2019 to 0000 UTC 17 February 2019
Forecast type: FROM: standard forecast or significant change
Winds: variable direction winds at 2 MPH (2 knots; 1.0 m/s)
Visibility: 1.86 miles (2.99 km)
Ceiling: unknown
Clouds: missing
Weather: HZ  (haze)
Text: TEMPO 1604/1607 1500
Forecast period: 0400 to 0700 UTC 16 February 2019
Forecast type: TEMPORARY: The following changes expected for less than half the time period
Visibility: 0.93 miles (1.50 km)
Ceiling: unknown
Clouds: missing
Weather: no significant weather forecast for this period